bureau de piste


EN APPLICATION DU DÉCRET  DU 16 MARS 2020 

AFIN DE RESPECTER LES CONSIGNES DE LUTTE CONTRE LA PANDÉMIE COVID19

LES ACTIVITÉS DE L’AÉROCLUB D’ANTIBES SONT SUSPENDUES JUSQU’À NOUVEL ORDRE.





METAR LFMD 090430Z AUTO 02003KT 340V050 CAVOK 07/00 Q1022 No

TAF found for LFMD

INFORMATION ADDS - 0444 UTC 09 Apr 2020


Plus d’information sur les terrains : LFMD et VALBERG

 

Les commentaires sont clos.